createdAt,value
2023-04-15T00:01:06.191Z,1.97
2023-04-15T00:03:36.611Z,2.80
2023-04-15T00:06:08.846Z,2.43
2023-04-15T00:08:38.285Z,3.60
2023-04-15T00:11:07.473Z,2.60
2023-04-15T00:13:36.857Z,2.87
2023-04-15T00:16:06.598Z,4.27
2023-04-15T00:18:35.962Z,2.40
2023-04-15T00:21:06.701Z,1.63
2023-04-15T00:23:37.904Z,2.23
2023-04-15T00:26:07.684Z,2.83
2023-04-15T00:28:36.748Z,3.10
2023-04-15T00:31:06.037Z,3.60
2023-04-15T00:33:36.892Z,4.40
2023-04-15T00:36:06.017Z,3.70
2023-04-15T00:38:36.397Z,4.37
2023-04-15T00:41:05.833Z,3.43
2023-04-15T00:43:34.805Z,4.80
2023-04-15T00:46:04.264Z,3.40
2023-04-15T00:48:33.539Z,3.10
2023-04-15T00:51:02.572Z,2.83
2023-04-15T00:53:31.531Z,3.10
2023-04-15T00:56:02.306Z,3.27
2023-04-15T00:58:31.596Z,3.37
2023-04-15T01:01:01.030Z,3.50
2023-04-15T01:03:30.245Z,3.30
2023-04-15T01:06:00.913Z,4.83
2023-04-15T01:08:34.097Z,4.30
2023-04-15T01:11:05.115Z,3.60
2023-04-15T01:13:36.838Z,3.30
2023-04-15T01:16:05.943Z,3.20
2023-04-15T01:18:34.879Z,2.40
2023-04-15T01:21:04.268Z,2.77
2023-04-15T01:23:33.245Z,2.60
2023-04-15T01:26:03.780Z,3.97
2023-04-15T01:28:33.243Z,2.00
2023-04-15T01:31:09.213Z,3.50
2023-04-15T01:33:38.322Z,2.30
2023-04-15T01:36:08.740Z,5.20
2023-04-15T01:38:37.698Z,3.50
2023-04-15T01:41:09.000Z,3.13
2023-04-15T01:43:38.117Z,4.00
2023-04-15T01:46:07.416Z,1.77
2023-04-15T01:48:36.389Z,3.57
2023-04-15T01:51:06.113Z,3.90
2023-04-15T01:53:34.891Z,3.20
2023-04-15T01:56:03.952Z,3.80
2023-04-15T01:58:34.298Z,3.23
2023-04-15T02:01:04.197Z,3.10
2023-04-15T02:03:33.880Z,2.67
2023-04-15T02:06:03.114Z,3.50
2023-04-15T02:08:31.938Z,3.93
2023-04-15T02:11:01.439Z,3.53
2023-04-15T02:13:30.299Z,2.93
2023-04-15T02:16:01.220Z,2.70
2023-04-15T02:18:30.139Z,2.60
2023-04-15T02:20:59.629Z,4.17
2023-04-15T02:23:28.542Z,4.63
2023-04-15T02:25:57.430Z,3.60
2023-04-15T02:28:27.540Z,4.87
2023-04-15T02:30:57.830Z,2.10
2023-04-15T02:33:29.818Z,3.97
2023-04-15T02:35:59.602Z,2.93
2023-04-15T02:38:28.455Z,3.83
2023-04-15T02:40:57.849Z,3.43
2023-04-15T02:43:40.276Z,2.40
2023-04-15T02:46:09.165Z,4.07
2023-04-15T02:48:39.936Z,4.17
2023-04-15T02:51:17.598Z,2.70
2023-04-15T02:53:49.721Z,3.10
2023-04-15T02:56:19.696Z,2.97
2023-04-15T02:58:50.841Z,1.90
2023-04-15T03:01:20.757Z,3.73
2023-04-15T03:03:51.189Z,4.17
2023-04-15T03:06:20.064Z,4.07
2023-04-15T03:08:49.083Z,4.17
2023-04-15T03:11:19.704Z,3.10
2023-04-15T03:13:48.495Z,2.17
2023-04-15T03:16:17.937Z,1.70
2023-04-15T03:18:46.705Z,2.83
2023-04-15T03:21:16.861Z,2.97
2023-04-15T03:23:46.112Z,2.60
2023-04-15T03:26:26.521Z,2.93
2023-04-15T03:28:55.502Z,4.00
2023-04-15T03:31:24.526Z,4.00
2023-04-15T03:33:53.363Z,3.53
2023-04-15T03:36:23.834Z,1.73
2023-04-15T03:38:53.337Z,2.10
2023-04-15T03:41:22.971Z,2.17
2023-04-15T03:43:52.363Z,3.50
2023-04-15T03:46:25.208Z,2.47
2023-04-15T03:48:54.276Z,2.30
2023-04-15T03:51:24.704Z,3.40
2023-04-15T03:53:54.619Z,3.60
2023-04-15T03:56:23.812Z,2.97
2023-04-15T03:58:52.775Z,3.50
2023-04-15T04:01:21.709Z,2.47
2023-04-15T04:03:50.719Z,4.30
2023-04-15T04:06:19.584Z,2.57
2023-04-15T04:08:51.277Z,2.50
2023-04-15T04:11:21.276Z,2.97
2023-04-15T04:13:50.044Z,3.63
2023-04-15T04:16:18.952Z,2.40
2023-04-15T04:18:48.277Z,3.00
2023-04-15T04:21:18.370Z,1.90
2023-04-15T04:23:47.176Z,4.83
2023-04-15T04:26:17.704Z,3.80
2023-04-15T04:28:46.466Z,3.10
2023-04-15T04:31:17.230Z,3.77
2023-04-15T04:33:46.618Z,2.10
2023-04-15T04:36:15.357Z,3.63
2023-04-15T04:38:44.586Z,3.17
2023-04-15T04:41:13.599Z,3.33
2023-04-15T04:43:44.378Z,3.10
2023-04-15T04:46:13.523Z,3.83
2023-04-15T04:48:42.572Z,3.83
2023-04-15T04:51:11.600Z,3.13
2023-04-15T04:53:41.192Z,2.97
2023-04-15T04:56:10.417Z,4.10
2023-04-15T04:58:44.013Z,3.57
2023-04-15T05:01:14.539Z,3.60
2023-04-15T05:03:44.334Z,2.73
2023-04-15T05:06:13.511Z,3.13
2023-04-15T05:08:42.844Z,1.97
2023-04-15T05:11:12.280Z,3.33
2023-04-15T05:13:41.135Z,3.97
2023-04-15T05:16:10.256Z,4.13
2023-04-15T05:18:40.613Z,4.30
2023-04-15T05:21:09.438Z,2.37
2023-04-15T05:23:38.297Z,2.37
2023-04-15T05:26:07.533Z,4.40
2023-04-15T05:28:36.451Z,4.67
2023-04-15T05:31:05.406Z,3.83
2023-04-15T05:33:34.292Z,3.13
2023-04-15T05:36:05.021Z,3.30
2023-04-15T05:38:33.834Z,5.27
2023-04-15T05:41:02.847Z,4.80
2023-04-15T05:43:31.927Z,4.03
2023-04-15T05:46:00.932Z,5.30
2023-04-15T05:48:29.807Z,5.07
2023-04-15T05:51:01.776Z,4.40
2023-04-15T05:53:32.756Z,4.70
2023-04-15T05:56:01.883Z,5.83
2023-04-15T05:58:31.068Z,3.67
2023-04-15T06:01:00.316Z,4.73
2023-04-15T06:03:29.776Z,4.03
2023-04-15T06:05:59.182Z,2.60
2023-04-15T06:08:28.010Z,4.67
2023-04-15T06:10:58.764Z,4.10
2023-04-15T06:13:28.123Z,3.53
2023-04-15T06:15:57.178Z,4.73
2023-04-15T06:18:30.028Z,5.03
2023-04-15T06:23:51.698Z,4.23
2023-04-15T06:26:23.438Z,4.07
2023-04-15T06:28:52.683Z,4.33
2023-04-15T06:31:22.069Z,4.77
2023-04-15T06:33:51.446Z,5.00
2023-04-15T06:36:21.983Z,3.87
2023-04-15T06:38:51.358Z,5.50
2023-04-15T06:41:21.407Z,4.00
2023-04-15T06:43:53.644Z,4.53
2023-04-15T06:46:23.358Z,5.63
2023-04-15T06:48:52.802Z,6.00
2023-04-15T06:51:22.139Z,4.13
2023-04-15T06:53:55.055Z,5.20
2023-04-15T06:56:29.071Z,4.63
2023-04-15T06:58:59.874Z,6.17
2023-04-15T07:01:31.109Z,5.30
2023-04-15T07:04:03.563Z,4.43
2023-04-15T07:06:33.058Z,4.33
2023-04-15T07:09:02.228Z,4.80
2023-04-15T07:11:31.350Z,3.80
2023-04-15T07:14:01.952Z,3.30
2023-04-15T07:16:31.189Z,3.37
2023-04-15T07:19:00.811Z,3.83
2023-04-15T07:21:32.607Z,2.60
2023-04-15T07:24:01.664Z,2.37
2023-04-15T07:26:30.908Z,3.87
2023-04-15T07:29:01.678Z,3.10
2023-04-15T07:31:31.083Z,3.30
2023-04-15T07:34:00.199Z,2.67
2023-04-15T07:36:29.617Z,2.10
2023-04-15T07:38:58.639Z,2.30
2023-04-15T07:41:28.885Z,2.20
2023-04-15T07:43:58.417Z,2.17
2023-04-15T07:46:29.692Z,2.40
2023-04-15T07:48:59.088Z,2.33
2023-04-15T07:51:29.505Z,2.00
2023-04-15T07:53:58.628Z,1.77
2023-04-15T07:56:30.127Z,2.77
2023-04-15T07:58:59.278Z,2.37
2023-04-15T08:01:30.652Z,2.20
2023-04-15T08:04:01.191Z,2.50
2023-04-15T08:06:31.315Z,2.50
2023-04-15T08:09:01.291Z,1.53
2023-04-15T08:11:30.626Z,2.20
2023-04-15T08:13:59.912Z,2.37
2023-04-15T08:16:32.285Z,2.47
2023-04-15T08:19:02.776Z,1.93
2023-04-15T08:21:33.689Z,2.50
2023-04-15T08:24:03.740Z,1.30
2023-04-15T08:26:33.578Z,1.80
2023-04-15T08:29:02.941Z,2.87
2023-04-15T08:31:35.375Z,1.80
2023-04-15T08:34:10.239Z,1.43
2023-04-15T08:36:39.830Z,1.67
2023-04-15T08:39:08.980Z,2.50
2023-04-15T08:41:42.331Z,1.77
2023-04-15T08:44:12.177Z,1.60
2023-04-15T08:46:45.603Z,1.50
2023-04-15T08:49:15.012Z,1.00
2023-04-15T08:51:45.526Z,1.53
2023-04-15T08:54:15.747Z,1.50
2023-04-15T08:56:45.938Z,1.47
2023-04-15T08:59:29.250Z,2.17
2023-04-15T09:02:01.435Z,2.37
2023-04-15T09:04:32.220Z,2.93
2023-04-15T09:07:09.896Z,2.17
2023-04-15T09:09:41.636Z,2.03
2023-04-15T09:12:18.335Z,1.63
2023-04-15T09:15:03.263Z,2.17
2023-04-15T09:17:36.147Z,1.60
2023-04-15T09:20:13.720Z,1.87
2023-04-15T09:22:43.753Z,1.60
2023-04-15T09:25:29.022Z,1.27
2023-04-15T09:28:00.259Z,1.27
2023-04-15T09:30:30.640Z,1.47
2023-04-15T09:33:02.692Z,1.87
2023-04-15T09:35:42.327Z,2.10
2023-04-15T09:38:14.185Z,2.50
2023-04-15T09:40:43.844Z,1.90
2023-04-15T09:43:23.187Z,1.50
2023-04-15T09:46:06.333Z,1.80
2023-04-15T09:48:41.408Z,1.87
2023-04-15T09:51:12.037Z,2.63
2023-04-15T09:54:04.145Z,2.70
2023-04-15T09:56:43.262Z,1.90
2023-04-15T09:59:13.263Z,2.30
2023-04-15T10:01:45.568Z,2.50
2023-04-15T10:04:23.968Z,2.10
2023-04-15T10:06:56.452Z,1.87
2023-04-15T10:09:26.864Z,1.73
2023-04-15T10:12:02.563Z,2.40
2023-04-15T10:14:39.093Z,2.10
2023-04-15T10:17:19.774Z,2.33
2023-04-15T10:19:55.645Z,2.13
2023-04-15T10:22:26.041Z,3.07
2023-04-15T10:25:02.524Z,1.97
2023-04-15T10:27:43.326Z,2.23
2023-04-15T10:30:14.738Z,1.77
2023-04-15T10:32:47.365Z,2.80
2023-04-15T10:35:19.380Z,1.70
2023-04-15T10:37:49.419Z,2.43
2023-04-15T10:40:36.935Z,1.83
2023-04-15T10:43:13.012Z,2.97
2023-04-15T10:45:52.157Z,2.33
2023-04-15T10:48:36.802Z,2.57
2023-04-15T10:51:08.955Z,1.90
2023-04-15T10:53:44.818Z,1.53
2023-04-15T10:56:25.894Z,2.10
2023-04-15T10:59:01.874Z,2.50
2023-04-15T11:05:09.177Z,1.63
2023-04-15T11:07:45.317Z,2.00
2023-04-15T11:10:35.208Z,1.80
2023-04-15T11:13:09.411Z,1.50
2023-04-15T11:15:42.857Z,2.20
2023-04-15T11:18:14.059Z,1.80
2023-04-15T11:20:45.824Z,2.23
2023-04-15T11:23:21.027Z,1.20
2023-04-15T11:25:52.808Z,2.00
2023-04-15T11:28:23.223Z,1.70
2023-04-15T11:30:54.620Z,1.80
2023-04-15T11:33:25.442Z,1.70
2023-04-15T11:35:56.180Z,2.70
2023-04-15T11:38:29.277Z,1.30
2023-04-15T11:40:59.860Z,1.63
2023-04-15T11:43:29.560Z,2.23
2023-04-15T11:46:00.629Z,2.33
2023-04-15T11:48:31.649Z,1.80
2023-04-15T11:51:02.155Z,2.00
2023-04-15T11:53:48.946Z,1.73
2023-04-15T11:56:21.535Z,1.60
2023-04-15T11:58:52.308Z,2.13
2023-04-15T12:01:24.043Z,1.50
2023-04-15T12:03:54.182Z,1.70
2023-04-15T12:06:27.416Z,1.83
2023-04-15T12:09:11.217Z,2.30
2023-04-15T12:11:47.225Z,1.63
2023-04-15T12:14:22.802Z,2.00
2023-04-15T12:16:54.979Z,1.40
2023-04-15T12:19:30.017Z,1.47
2023-04-15T12:22:02.188Z,1.20
2023-04-15T12:24:41.929Z,2.10
2023-04-15T12:27:12.828Z,1.87
2023-04-15T12:29:43.694Z,1.47
2023-04-15T12:32:21.109Z,1.33
2023-04-15T12:34:52.810Z,2.07
2023-04-15T12:37:26.867Z,1.40
2023-04-15T12:39:58.422Z,1.83
2023-04-15T12:42:33.995Z,1.40
2023-04-15T12:45:10.997Z,1.57
2023-04-15T12:47:40.635Z,1.43
2023-04-15T12:50:12.245Z,1.50
2023-04-15T12:52:41.699Z,1.53
2023-04-15T12:55:27.673Z,1.67
2023-04-15T12:58:00.710Z,1.83
2023-04-15T13:00:30.861Z,1.70
2023-04-15T13:03:06.787Z,1.70
2023-04-15T13:05:39.587Z,1.73
2023-04-15T13:08:12.607Z,1.77
2023-04-15T13:10:44.286Z,1.30
2023-04-15T13:13:15.568Z,1.87
2023-04-15T13:15:46.557Z,2.60
2023-04-15T13:18:16.360Z,1.30
2023-04-15T13:20:47.524Z,1.10
2023-04-15T13:23:17.327Z,1.77
2023-04-15T13:25:53.423Z,1.27
2023-04-15T13:28:22.715Z,1.40
2023-04-15T13:30:54.756Z,2.00
2023-04-15T13:33:25.660Z,1.20
2023-04-15T13:35:55.011Z,1.23
2023-04-15T13:38:24.665Z,1.50
2023-04-15T13:40:56.377Z,1.47
2023-04-15T13:43:26.872Z,1.43
2023-04-15T13:45:56.519Z,1.60
2023-04-15T13:48:27.039Z,1.70
2023-04-15T13:50:56.298Z,1.50
2023-04-15T13:53:37.726Z,2.03
2023-04-15T13:56:23.514Z,1.83
2023-04-15T13:58:55.237Z,1.60
2023-04-15T14:01:24.568Z,1.90
2023-04-15T14:03:54.832Z,1.90
2023-04-15T14:06:35.549Z,1.80
2023-04-15T14:09:05.557Z,1.40
2023-04-15T14:11:37.079Z,2.07
2023-04-15T14:14:06.930Z,1.03
2023-04-15T14:16:36.978Z,1.10
2023-04-15T14:19:09.690Z,1.20
2023-04-15T14:21:38.672Z,0.83
2023-04-15T14:24:08.686Z,1.23
2023-04-15T14:26:40.829Z,1.10
2023-04-15T14:29:15.706Z,1.23
2023-04-15T14:32:03.840Z,1.13
2023-04-15T14:34:36.539Z,0.80
2023-04-15T14:37:10.423Z,1.30
2023-04-15T14:39:42.310Z,1.50
2023-04-15T14:42:13.538Z,1.00
2023-04-15T14:44:46.097Z,1.10
2023-04-15T14:50:12.636Z,1.23
2023-04-15T14:52:50.040Z,1.93
2023-04-15T14:55:20.889Z,1.20
2023-04-15T14:57:53.973Z,1.70
2023-04-15T15:00:25.609Z,1.60
2023-04-15T15:03:22.945Z,1.17
2023-04-15T15:06:00.600Z,1.00
2023-04-15T15:11:39.125Z,1.40
2023-04-15T15:14:25.915Z,1.73
2023-04-15T15:17:24.068Z,1.17
2023-04-15T15:20:19.190Z,1.50
2023-04-15T15:23:09.558Z,1.30
2023-04-15T15:25:50.835Z,1.27
2023-04-15T15:28:42.117Z,0.97
2023-04-15T15:31:26.802Z,1.10
2023-04-15T15:34:13.016Z,1.50
2023-04-15T15:43:07.935Z,0.90
2023-04-15T15:45:44.747Z,0.93
2023-04-15T15:54:13.417Z,1.33
2023-04-15T16:00:04.872Z,1.10
2023-04-15T16:05:48.725Z,1.20
2023-04-15T16:11:22.074Z,1.03
2023-04-15T16:13:58.707Z,1.10
2023-04-15T16:19:35.862Z,1.83
2023-04-15T16:25:19.453Z,2.57
2023-04-15T16:28:05.601Z,0.93
2023-04-15T16:30:47.599Z,1.23
2023-04-15T16:33:35.538Z,1.80
2023-04-15T16:39:09.337Z,0.93
2023-04-15T16:41:55.967Z,1.37
2023-04-15T16:44:25.868Z,1.87
2023-04-15T16:46:57.085Z,1.60
2023-04-15T16:49:29.474Z,1.23
2023-04-15T16:52:14.825Z,2.40
2023-04-15T16:54:55.203Z,1.20
2023-04-15T16:57:53.182Z,1.67
2023-04-15T17:00:27.646Z,1.03
2023-04-15T17:03:02.835Z,1.93
2023-04-15T17:05:34.121Z,1.87
2023-04-15T17:08:03.946Z,1.57
2023-04-15T17:10:46.796Z,0.97
2023-04-15T17:13:17.212Z,1.73
2023-04-15T17:15:49.681Z,1.23
2023-04-15T17:21:37.116Z,1.23
2023-04-15T17:24:08.499Z,2.30
2023-04-15T17:26:54.423Z,1.20
2023-04-15T17:29:26.540Z,1.70
2023-04-15T17:32:09.179Z,1.73
2023-04-15T17:35:01.040Z,2.07
2023-04-15T17:37:32.019Z,1.30
2023-04-15T17:40:15.493Z,1.40
2023-04-15T17:42:44.671Z,1.23
2023-04-15T17:45:34.340Z,1.40
2023-04-15T17:48:20.151Z,0.83
2023-04-15T17:50:52.274Z,1.83
2023-04-15T17:53:28.741Z,1.20
2023-04-15T17:59:24.885Z,1.70
2023-04-15T18:02:03.749Z,1.73
2023-04-15T18:04:33.422Z,1.47
2023-04-15T18:07:04.609Z,1.30
2023-04-15T18:09:35.351Z,2.67
2023-04-15T18:12:08.126Z,1.40
2023-04-15T18:14:41.577Z,1.50
2023-04-15T18:17:19.330Z,1.90
2023-04-15T18:19:53.749Z,1.80
2023-04-15T18:22:28.931Z,0.93
2023-04-15T18:25:18.751Z,1.00
2023-04-15T18:27:48.303Z,1.00
2023-04-15T18:30:29.471Z,1.63
2023-04-15T18:33:01.100Z,1.43
2023-04-15T18:35:34.229Z,0.80
2023-04-15T18:38:03.950Z,1.03
2023-04-15T18:40:33.433Z,0.90
2023-04-15T18:43:10.241Z,1.10
2023-04-15T18:45:47.282Z,0.90
2023-04-15T18:48:19.106Z,1.67
2023-04-15T18:50:51.819Z,1.60
2023-04-15T18:53:27.429Z,0.60
2023-04-15T18:56:02.417Z,1.40
2023-04-15T18:59:08.611Z,1.40
2023-04-15T19:01:27.188Z,1.47
2023-04-15T19:03:57.800Z,1.83
2023-04-15T19:06:27.640Z,1.63
2023-04-15T19:08:58.864Z,1.53
2023-04-15T19:11:30.478Z,1.90
2023-04-15T19:14:02.026Z,1.53
2023-04-15T19:16:34.073Z,1.53
2023-04-15T19:19:04.274Z,1.60
2023-04-15T19:21:34.600Z,1.77
2023-04-15T19:24:05.350Z,1.53
2023-04-15T19:26:35.061Z,1.33
2023-04-15T19:29:07.823Z,1.47
2023-04-15T19:31:46.834Z,1.23
2023-04-15T19:34:16.404Z,1.50
2023-04-15T19:36:46.976Z,1.33
2023-04-15T19:39:17.536Z,1.33
2023-04-15T19:41:48.948Z,1.80
2023-04-15T19:44:18.434Z,1.00
2023-04-15T19:46:54.280Z,1.30
2023-04-15T19:49:23.927Z,1.90
2023-04-15T19:51:53.597Z,1.33
2023-04-15T19:54:24.636Z,2.80
2023-04-15T19:56:54.615Z,1.47
2023-04-15T19:59:29.226Z,1.40
2023-04-15T20:04:46.934Z,2.27
2023-04-15T20:07:19.204Z,1.50
2023-04-15T20:10:02.286Z,1.80
2023-04-15T20:12:51.114Z,1.77
2023-04-15T20:15:35.780Z,1.47
2023-04-15T20:18:07.798Z,1.23
2023-04-15T20:20:39.325Z,1.73
2023-04-15T20:23:15.580Z,2.53
2023-04-15T20:25:45.181Z,1.40
2023-04-15T20:28:16.495Z,1.80
2023-04-15T20:30:57.144Z,1.97
2023-04-15T20:33:35.817Z,2.00
2023-04-15T20:36:06.322Z,1.03
2023-04-15T20:38:38.215Z,1.27
2023-04-15T20:41:09.041Z,1.73
2023-04-15T20:43:42.913Z,3.70
2023-04-15T20:46:43.718Z,2.00
2023-04-15T20:49:17.584Z,2.43
2023-04-15T20:51:47.024Z,1.80
2023-04-15T20:54:16.481Z,1.60
2023-04-15T20:56:53.628Z,1.93
2023-04-15T20:59:22.857Z,1.70
2023-04-15T21:01:57.600Z,2.07
2023-04-15T21:04:29.610Z,1.37
2023-04-15T21:06:59.014Z,2.07
2023-04-15T21:09:29.600Z,1.60
2023-04-15T21:12:02.293Z,8.40
2023-04-15T21:14:32.670Z,3.20
2023-04-15T21:17:10.623Z,1.30
2023-04-15T21:19:42.455Z,1.67
2023-04-15T21:22:13.361Z,1.33
2023-04-15T21:24:42.851Z,2.50
2023-04-15T21:27:13.153Z,1.40
2023-04-15T21:29:45.092Z,3.77
2023-04-15T21:32:17.593Z,3.00
2023-04-15T21:34:48.922Z,1.10
2023-04-15T21:37:19.457Z,2.20
2023-04-15T21:39:51.606Z,2.23
2023-04-15T21:42:23.103Z,1.63
2023-04-15T21:44:55.610Z,2.00
2023-04-15T21:47:25.417Z,3.23
2023-04-15T21:49:59.921Z,4.13
2023-04-15T21:52:29.273Z,2.40
2023-04-15T21:54:58.419Z,2.47
2023-04-15T21:57:29.374Z,2.33
2023-04-15T21:59:59.080Z,2.03
2023-04-15T22:02:31.757Z,1.50
2023-04-15T22:05:04.414Z,2.67
2023-04-15T22:07:33.397Z,2.43
2023-04-15T22:10:03.057Z,2.70
2023-04-15T22:12:32.182Z,2.60
2023-04-15T22:15:01.173Z,2.27
2023-04-15T22:17:30.324Z,3.40
2023-04-15T22:19:59.666Z,2.97
2023-04-15T22:22:44.538Z,1.60
2023-04-15T22:25:19.233Z,1.70
2023-04-15T22:27:48.101Z,2.07
2023-04-15T22:30:22.572Z,1.80
2023-04-15T22:32:51.486Z,2.07
2023-04-15T22:35:20.943Z,2.37
2023-04-15T22:37:53.682Z,2.70
2023-04-15T22:40:23.275Z,2.10
2023-04-15T22:42:52.546Z,3.47
2023-04-15T22:45:26.942Z,2.73
2023-04-15T22:47:56.014Z,2.10
2023-04-15T22:50:25.442Z,2.73
2023-04-15T22:52:56.321Z,4.47
2023-04-15T22:55:25.797Z,5.50
2023-04-15T22:57:55.345Z,1.77
2023-04-15T23:00:24.367Z,2.40
2023-04-15T23:02:56.794Z,3.10
